KDOV/DOV METAR and TAF weather

Enter ICAO airport designator
Station Type Date Time Source
KDOV METAR 2022/08/12 14:56 UTC NOAA

KDOV 121456Z AUTO 35011KT 10SM CLR 26/16 A3000 RMK AO2 SLP162 T02550155 51008 $


Station Type Date Time Source
KDOV Decoded METAR 2022/08/12 14:56 UTC NOAA

Dover Air Force Base, DE, United States (KDOV) 39-08N 075-28W
Aug 12, 2022 - 10:56 AM EDT / 2022.08.12 1456 UTC
Wind: from the N (350 degrees) at 13 MPH (11 KT):0
Visibility: 10 mile(s):0
Sky conditions: clear
Temperature: 77.9 F (25.5 C)
Dew Point: 59.9 F (15.5 C)
Relative Humidity: 53%
Pressure (altimeter): 30 in. Hg (1015 hPa)
Pressure tendency: 0.02 inches (0.8 hPa) higher than three hours ago
ob: KDOV 121456Z AUTO 35011KT 10SM CLR 26/16 A3000 RMK AO2 SLP162 T02550155 51008
cycle: 15

Station Type Date Time Source
KDOV TAF 2022/08/12 08:12 UTC NOAA

TAF KDOV 120800Z 1208/1314 36009KT 9999 SCT080 QNH2994INS
TEMPO 1212/1214 9000 -SHRA BKN050 TX29/1218Z TN20/1210Z

Example: see airport list